createdAt,value
2023-07-22T00:00:16.057Z,101237.94
2023-07-22T00:00:48.451Z,101233.31
2023-07-22T00:01:20.248Z,101241.75
2023-07-22T00:01:52.123Z,101241.63
2023-07-22T00:02:24.087Z,101237.69
2023-07-22T00:02:55.772Z,101232.31
2023-07-22T00:03:27.597Z,101235.59
2023-07-22T00:03:59.724Z,101238.81
2023-07-22T00:04:31.417Z,101239.31
2023-07-22T00:05:03.264Z,101236.56
2023-07-22T00:05:34.959Z,101232.63
2023-07-22T00:06:11.453Z,101234.88
2023-07-22T00:06:43.088Z,101240.72
2023-07-22T00:07:14.745Z,101235.84
2023-07-22T00:07:46.323Z,101238.50
2023-07-22T00:08:17.941Z,101240.66
2023-07-22T00:08:51.089Z,101245.41
2023-07-22T00:09:22.870Z,101241.47
2023-07-22T00:09:54.577Z,101236.13
2023-07-22T00:10:26.265Z,101238.53
2023-07-22T00:10:58.204Z,101237.50
2023-07-22T00:11:29.841Z,101240.75
2023-07-22T00:12:01.583Z,101237.16
2023-07-22T00:12:33.421Z,101234.44
2023-07-22T00:13:05.090Z,101235.31
2023-07-22T00:13:36.813Z,101232.22
2023-07-22T00:14:08.393Z,101237.06
2023-07-22T00:14:41.826Z,101237.56
2023-07-22T00:15:13.615Z,101236.06
2023-07-22T00:15:45.460Z,101234.81
2023-07-22T00:16:17.266Z,101233.63
2023-07-22T00:16:49.069Z,101232.47
2023-07-22T00:17:22.243Z,101233.63
2023-07-22T00:17:53.970Z,101234.44
2023-07-22T00:18:25.697Z,101227.81
2023-07-22T00:19:00.170Z,101220.84
2023-07-22T00:19:31.905Z,101228.19
2023-07-22T00:20:05.690Z,101222.84
2023-07-22T00:20:37.323Z,101227.69
2023-07-22T00:21:10.179Z,101224.72
2023-07-22T00:21:41.787Z,101223.16
2023-07-22T00:22:13.376Z,101227.56
2023-07-22T00:22:44.930Z,101219.34
2023-07-22T00:23:17.189Z,101222.97
2023-07-22T00:23:48.834Z,101226.25
2023-07-22T00:24:20.589Z,101221.19
2023-07-22T00:24:52.232Z,101222.00
2023-07-22T00:25:23.887Z,101230.84
2023-07-22T00:25:56.331Z,101223.88
2023-07-22T00:26:28.595Z,101221.63
2023-07-22T00:27:00.567Z,101222.50
2023-07-22T00:27:32.203Z,101222.78
2023-07-22T00:28:05.230Z,101223.09
2023-07-22T00:28:36.826Z,101221.53
2023-07-22T00:29:09.137Z,101221.22
2023-07-22T00:29:40.758Z,101221.13
2023-07-22T00:30:12.537Z,101228.78
2023-07-22T00:30:44.221Z,101228.59
2023-07-22T00:31:15.905Z,101221.84
2023-07-22T00:31:47.500Z,101226.38
2023-07-22T00:32:19.122Z,101225.38
2023-07-22T00:32:51.686Z,101222.66
2023-07-22T00:33:24.787Z,101228.44
2023-07-22T00:33:56.591Z,101229.97
2023-07-22T00:34:28.213Z,101229.59
2023-07-22T00:35:00.098Z,101223.16
2023-07-22T00:35:32.955Z,101225.06
2023-07-22T00:36:04.928Z,101215.78
2023-07-22T00:36:36.667Z,101225.25
2023-07-22T00:37:08.373Z,101228.84
2023-07-22T00:37:40.475Z,101228.44
2023-07-22T00:38:12.255Z,101224.75
2023-07-22T00:38:44.920Z,101218.06
2023-07-22T00:39:16.646Z,101227.88
2023-07-22T00:39:48.327Z,101227.34
2023-07-22T00:40:20.531Z,101223.44
2023-07-22T00:40:52.216Z,101220.94
2023-07-22T00:41:23.925Z,101224.44
2023-07-22T00:41:55.529Z,101222.09
2023-07-22T00:42:28.267Z,101226.28
2023-07-22T00:43:00.691Z,101225.38
2023-07-22T00:43:32.859Z,101224.94
2023-07-22T00:44:04.704Z,101225.72
2023-07-22T00:44:38.107Z,101227.44
2023-07-22T00:45:09.842Z,101219.88
2023-07-22T00:45:41.495Z,101224.16
2023-07-22T00:46:13.225Z,101222.09
2023-07-22T00:46:45.944Z,101221.69
2023-07-22T00:47:18.686Z,101222.84
2023-07-22T00:47:50.970Z,101223.56
2023-07-22T00:48:23.371Z,101224.38
2023-07-22T00:48:55.193Z,101230.69
2023-07-22T00:49:27.500Z,101221.34
2023-07-22T00:50:01.464Z,101223.00
2023-07-22T00:50:34.105Z,101218.41
2023-07-22T00:51:06.458Z,101222.50
2023-07-22T00:51:38.231Z,101214.16
2023-07-22T00:52:10.140Z,101215.56
2023-07-22T00:52:41.849Z,101211.19
2023-07-22T00:53:13.633Z,101215.91
2023-07-22T00:53:45.307Z,101212.00
2023-07-22T00:54:16.977Z,101214.78
2023-07-22T00:54:48.662Z,101215.69
2023-07-22T00:55:20.199Z,101211.50
2023-07-22T00:55:51.892Z,101212.81
2023-07-22T00:56:23.648Z,101215.22
2023-07-22T00:56:55.866Z,101213.63
2023-07-22T00:57:27.551Z,101213.81
2023-07-22T00:57:59.140Z,101218.88
2023-07-22T00:58:30.731Z,101216.81
2023-07-22T00:59:02.799Z,101216.75
2023-07-22T00:59:34.471Z,101216.34
2023-07-22T01:00:07.172Z,101217.22
2023-07-22T01:00:38.954Z,101215.00
2023-07-22T01:01:10.733Z,101220.13
2023-07-22T01:01:42.429Z,101217.03
2023-07-22T01:02:14.290Z,101219.75
2023-07-22T01:02:46.036Z,101221.56
2023-07-22T01:03:20.072Z,101215.38
2023-07-22T01:03:51.895Z,101216.97
2023-07-22T01:04:24.081Z,101220.88
2023-07-22T01:04:55.722Z,101215.88
2023-07-22T01:05:28.246Z,101216.91
2023-07-22T01:06:01.782Z,101212.16
2023-07-22T01:06:34.720Z,101225.19
2023-07-22T01:07:10.024Z,101224.50
2023-07-22T01:07:42.625Z,101221.13
2023-07-22T01:08:14.757Z,101219.97
2023-07-22T01:08:47.787Z,101218.91
2023-07-22T01:09:19.493Z,101221.88
2023-07-22T01:09:57.287Z,101218.78
2023-07-22T01:10:29.715Z,101220.63
2023-07-22T01:11:01.407Z,101221.59
2023-07-22T01:11:33.054Z,101226.28
2023-07-22T01:12:07.242Z,101211.69
2023-07-22T01:12:41.603Z,101220.16
2023-07-22T01:13:13.167Z,101216.97
2023-07-22T01:13:44.815Z,101220.59
2023-07-22T01:14:16.532Z,101218.56
2023-07-22T01:14:48.126Z,101220.59
2023-07-22T01:15:19.797Z,101218.63
2023-07-22T01:15:51.606Z,101208.81
2023-07-22T01:16:23.370Z,101214.31
2023-07-22T01:16:55.431Z,101208.81
2023-07-22T01:17:30.114Z,101207.91
2023-07-22T01:18:03.632Z,101203.81
2023-07-22T01:18:35.796Z,101200.47
2023-07-22T01:19:07.925Z,101206.41
2023-07-22T01:19:39.790Z,101198.69
2023-07-22T01:20:12.176Z,101212.03
2023-07-22T01:20:44.180Z,101201.25
2023-07-22T01:21:16.682Z,101201.63
2023-07-22T01:21:48.427Z,101196.34
2023-07-22T01:22:22.464Z,101203.25
2023-07-22T01:22:55.395Z,101202.81
2023-07-22T01:23:27.041Z,101198.34
2023-07-22T01:23:58.895Z,101193.84
2023-07-22T01:24:30.758Z,101188.88
2023-07-22T01:25:02.720Z,101190.09
2023-07-22T01:25:34.419Z,101199.47
2023-07-22T01:26:06.693Z,101196.34
2023-07-22T01:26:38.275Z,101195.09
2023-07-22T01:27:11.386Z,101198.84
2023-07-22T01:27:45.301Z,101192.53
2023-07-22T01:28:16.868Z,101192.44
2023-07-22T01:28:48.470Z,101188.34
2023-07-22T01:29:20.027Z,101194.53
2023-07-22T01:29:52.761Z,101193.47
2023-07-22T01:30:24.478Z,101195.16
2023-07-22T01:30:56.299Z,101191.22
2023-07-22T01:31:28.131Z,101192.88
2023-07-22T01:32:00.484Z,101188.19
2023-07-22T01:32:32.831Z,101197.56
2023-07-22T01:33:04.579Z,101189.59
2023-07-22T01:33:36.303Z,101199.22
2023-07-22T01:34:08.350Z,101191.84
2023-07-22T01:34:40.989Z,101186.28
2023-07-22T01:35:12.607Z,101192.41
2023-07-22T01:35:44.185Z,101189.13
2023-07-22T01:36:15.747Z,101195.91
2023-07-22T01:36:48.619Z,101191.44
2023-07-22T01:37:20.276Z,101192.63
2023-07-22T01:37:51.927Z,101196.94
2023-07-22T01:38:23.450Z,101196.53
2023-07-22T01:38:55.610Z,101185.47
2023-07-22T01:39:28.649Z,101192.84
2023-07-22T01:40:00.476Z,101187.88
2023-07-22T01:40:32.279Z,101193.25
2023-07-22T01:41:03.905Z,101189.56
2023-07-22T01:41:35.599Z,101188.75
2023-07-22T01:42:07.254Z,101194.50
2023-07-22T01:42:44.796Z,101196.75
2023-07-22T01:43:16.466Z,101199.41
2023-07-22T01:43:48.058Z,101199.78
2023-07-22T01:44:19.622Z,101196.97
2023-07-22T01:44:51.518Z,101188.97
2023-07-22T01:45:23.217Z,101199.84
2023-07-22T01:45:54.886Z,101196.53
2023-07-22T01:46:26.906Z,101192.09
2023-07-22T01:46:58.704Z,101197.22
2023-07-22T01:47:30.277Z,101197.63
2023-07-22T01:48:01.885Z,101192.56
2023-07-22T01:48:33.621Z,101194.59
2023-07-22T01:49:07.969Z,101201.91
2023-07-22T01:49:39.516Z,101195.84
2023-07-22T01:50:11.530Z,101198.09
2023-07-22T01:50:43.207Z,101198.66
2023-07-22T01:51:15.439Z,101198.69
2023-07-22T01:51:47.198Z,101194.59
2023-07-22T01:52:18.756Z,101194.19
2023-07-22T01:52:50.378Z,101190.47
2023-07-22T01:53:21.979Z,101201.34
2023-07-22T01:53:53.665Z,101191.31
2023-07-22T01:54:25.237Z,101197.06
2023-07-22T01:54:56.856Z,101197.84
2023-07-22T01:55:28.472Z,101198.25
2023-07-22T01:56:00.070Z,101195.84
2023-07-22T01:56:32.015Z,101189.88
2023-07-22T01:57:04.311Z,101199.06
2023-07-22T01:57:35.991Z,101186.38
2023-07-22T01:58:07.720Z,101187.63
2023-07-22T01:58:39.318Z,101186.97
2023-07-22T01:59:10.952Z,101197.84
2023-07-22T01:59:43.360Z,101198.22
2023-07-22T02:00:18.121Z,101192.91
2023-07-22T02:00:51.632Z,101191.00
2023-07-22T02:01:23.258Z,101193.47
2023-07-22T02:01:54.922Z,101192.84
2023-07-22T02:02:27.503Z,101192.44
2023-07-22T02:02:59.217Z,101185.69
2023-07-22T02:03:31.002Z,101187.53
2023-07-22T02:04:02.694Z,101185.66
2023-07-22T02:04:34.373Z,101186.91
2023-07-22T02:05:07.183Z,101186.50
2023-07-22T02:05:39.827Z,101187.75
2023-07-22T02:06:11.450Z,101186.13
2023-07-22T02:06:43.130Z,101185.50
2023-07-22T02:07:14.882Z,101186.25
2023-07-22T02:07:47.160Z,101187.34
2023-07-22T02:08:18.780Z,101180.56
2023-07-22T02:08:50.624Z,101184.66
2023-07-22T02:09:22.359Z,101190.72
2023-07-22T02:09:54.515Z,101187.53
2023-07-22T02:10:26.100Z,101187.25
2023-07-22T02:11:08.092Z,101187.44
2023-07-22T02:11:39.728Z,101185.47
2023-07-22T02:12:12.467Z,101189.50
2023-07-22T02:12:44.046Z,101188.63
2023-07-22T02:13:15.621Z,101188.88
2023-07-22T02:13:47.416Z,101189.53
2023-07-22T02:14:19.044Z,101190.41
2023-07-22T02:14:50.825Z,101193.09
2023-07-22T02:15:23.251Z,101190.41
2023-07-22T02:15:55.537Z,101196.94
2023-07-22T02:16:27.432Z,101184.63
2023-07-22T02:16:59.415Z,101186.88
2023-07-22T02:17:31.984Z,101196.13
2023-07-22T02:18:03.884Z,101185.03
2023-07-22T02:18:35.548Z,101194.50
2023-07-22T02:19:07.427Z,101194.41
2023-07-22T02:19:45.955Z,101190.75
2023-07-22T02:20:18.355Z,101194.91
2023-07-22T02:20:49.882Z,101191.22
2023-07-22T02:21:21.455Z,101192.25
2023-07-22T02:21:53.108Z,101190.00
2023-07-22T02:22:24.747Z,101188.47
2023-07-22T02:22:56.421Z,101190.34
2023-07-22T02:23:28.104Z,101192.31
2023-07-22T02:23:59.691Z,101184.97
2023-07-22T02:24:31.514Z,101182.47
2023-07-22T02:25:04.420Z,101189.13
2023-07-22T02:25:37.082Z,101192.41
2023-07-22T02:26:08.918Z,101188.09
2023-07-22T02:26:40.535Z,101195.72
2023-07-22T02:27:12.245Z,101193.00
2023-07-22T02:27:44.948Z,101185.38
2023-07-22T02:28:16.773Z,101186.03
2023-07-22T02:28:49.195Z,101189.34
2023-07-22T02:29:23.650Z,101188.34
2023-07-22T02:29:55.223Z,101185.66
2023-07-22T02:30:26.855Z,101186.72
2023-07-22T02:31:03.472Z,101193.66
2023-07-22T02:31:35.133Z,101190.59
2023-07-22T02:32:06.976Z,101186.59
2023-07-22T02:32:40.312Z,101185.97
2023-07-22T02:33:12.035Z,101183.09
2023-07-22T02:33:43.934Z,101186.53
2023-07-22T02:34:15.485Z,101188.69
2023-07-22T02:34:47.044Z,101185.84
2023-07-22T02:35:18.614Z,101187.09
2023-07-22T02:35:50.418Z,101178.50
2023-07-22T02:36:22.121Z,101186.31
2023-07-22T02:36:53.666Z,101188.38
2023-07-22T02:37:25.239Z,101183.22
2023-07-22T02:37:56.984Z,101185.09
2023-07-22T02:38:28.529Z,101175.31
2023-07-22T02:39:00.101Z,101185.09
2023-07-22T02:39:31.658Z,101180.38
2023-07-22T02:40:08.876Z,101176.84
2023-07-22T02:40:41.941Z,101184.22
2023-07-22T02:41:13.592Z,101184.69
2023-07-22T02:41:45.242Z,101183.28
2023-07-22T02:42:16.864Z,101177.28
2023-07-22T02:42:49.279Z,101184.66
2023-07-22T02:43:20.827Z,101179.34
2023-07-22T02:43:52.363Z,101185.94
2023-07-22T02:44:23.999Z,101186.28
2023-07-22T02:44:55.711Z,101184.66
2023-07-22T02:45:27.881Z,101186.72
2023-07-22T02:46:05.271Z,101187.50
2023-07-22T02:46:36.996Z,101182.00
2023-07-22T02:47:08.602Z,101189.75
2023-07-22T02:47:40.274Z,101187.75
2023-07-22T02:48:11.938Z,101183.47
2023-07-22T02:48:43.487Z,101184.88
2023-07-22T02:49:15.026Z,101174.81
2023-07-22T02:49:46.638Z,101185.06
2023-07-22T02:50:18.294Z,101186.53
2023-07-22T02:50:51.036Z,101182.25
2023-07-22T02:51:22.563Z,101181.63
2023-07-22T02:51:54.194Z,101177.97
2023-07-22T02:52:25.860Z,101184.13
2023-07-22T02:52:57.627Z,101178.34
2023-07-22T02:53:29.149Z,101180.19
2023-07-22T02:54:00.680Z,101180.03
2023-07-22T02:54:32.256Z,101185.53
2023-07-22T02:55:08.252Z,101182.25
2023-07-22T02:55:39.832Z,101182.06
2023-07-22T02:56:12.371Z,101182.03
2023-07-22T02:56:44.000Z,101188.22
2023-07-22T02:57:15.529Z,101179.03
2023-07-22T02:57:48.279Z,101185.13
2023-07-22T02:58:19.855Z,101183.28
2023-07-22T02:58:51.618Z,101178.56
2023-07-22T02:59:23.364Z,101178.56
2023-07-22T02:59:54.950Z,101183.31
2023-07-22T03:00:26.827Z,101183.50
2023-07-22T03:00:59.016Z,101189.88
2023-07-22T03:01:30.858Z,101184.53
2023-07-22T03:02:02.507Z,101188.00
2023-07-22T03:02:34.898Z,101187.19
2023-07-22T03:03:06.498Z,101192.53
2023-07-22T03:03:38.259Z,101180.63
2023-07-22T03:04:10.590Z,101193.31
2023-07-22T03:04:42.980Z,101183.50
2023-07-22T03:05:14.710Z,101185.31
2023-07-22T03:05:46.631Z,101189.63
2023-07-22T03:06:18.178Z,101192.13
2023-07-22T03:06:49.994Z,101188.41
2023-07-22T03:07:21.659Z,101193.53
2023-07-22T03:07:54.377Z,101199.06
2023-07-22T03:08:26.302Z,101194.97
2023-07-22T03:08:59.016Z,101199.28
2023-07-22T03:09:30.557Z,101197.63
2023-07-22T03:10:02.198Z,101195.81
2023-07-22T03:10:34.332Z,101197.88
2023-07-22T03:11:08.936Z,101192.53
2023-07-22T03:11:40.468Z,101197.47
2023-07-22T03:12:12.032Z,101194.81
2023-07-22T03:12:43.721Z,101194.19
2023-07-22T03:13:16.606Z,101194.19
2023-07-22T03:13:48.918Z,101195.00
2023-07-22T03:14:21.716Z,101190.69
2023-07-22T03:14:53.245Z,101190.69
2023-07-22T03:15:27.020Z,101192.53
2023-07-22T03:15:59.334Z,101192.97
2023-07-22T03:16:32.903Z,101190.91
2023-07-22T03:17:07.375Z,101193.38
2023-07-22T03:17:39.800Z,101187.84
2023-07-22T03:18:12.521Z,101192.75
2023-07-22T03:18:45.710Z,101186.41
2023-07-22T03:19:17.260Z,101193.78
2023-07-22T03:19:50.312Z,101191.69
2023-07-22T03:20:23.223Z,101193.38
2023-07-22T03:20:54.790Z,101187.84
2023-07-22T03:21:26.331Z,101196.63
2023-07-22T03:21:57.881Z,101185.56
2023-07-22T03:22:29.522Z,101191.09
2023-07-22T03:23:01.154Z,101186.59
2023-07-22T03:23:32.692Z,101191.13
2023-07-22T03:24:04.708Z,101192.94
2023-07-22T03:24:36.459Z,101192.13
2023-07-22T03:25:11.376Z,101187.22
2023-07-22T03:25:43.530Z,101186.81
2023-07-22T03:26:15.164Z,101189.47
2023-07-22T03:26:46.736Z,101188.41
2023-07-22T03:27:18.639Z,101190.69
2023-07-22T03:27:50.338Z,101183.31
2023-07-22T03:28:21.885Z,101185.19
2023-07-22T03:28:53.398Z,101189.25
2023-07-22T03:29:25.399Z,101182.06
2023-07-22T03:29:57.118Z,101191.69
2023-07-22T03:30:28.717Z,101188.25
2023-07-22T03:31:00.342Z,101189.03
2023-07-22T03:31:32.002Z,101193.56
2023-07-22T03:32:03.790Z,101193.75
2023-07-22T03:32:36.062Z,101188.44
2023-07-22T03:33:07.746Z,101183.69
2023-07-22T03:33:39.998Z,101193.56
2023-07-22T03:34:11.631Z,101194.59
2023-07-22T03:34:43.263Z,101192.34
2023-07-22T03:35:15.283Z,101188.47
2023-07-22T03:35:46.971Z,101192.56
2023-07-22T03:36:18.496Z,101187.22
2023-07-22T03:36:50.128Z,101179.63
2023-07-22T03:37:21.805Z,101187.22
2023-07-22T03:37:53.489Z,101186.81
2023-07-22T03:38:25.378Z,101183.53
2023-07-22T03:38:58.284Z,101185.16
2023-07-22T03:39:29.861Z,101185.19
2023-07-22T03:40:01.740Z,101189.91
2023-07-22T03:40:33.900Z,101187.22
2023-07-22T03:41:08.077Z,101187.22
2023-07-22T03:41:39.639Z,101182.53
2023-07-22T03:42:11.208Z,101182.72
2023-07-22T03:42:42.894Z,101187.84
2023-07-22T03:43:14.546Z,101183.88
2023-07-22T03:43:46.083Z,101183.09
2023-07-22T03:44:18.100Z,101181.88
2023-07-22T03:44:49.675Z,101185.97
2023-07-22T03:45:22.224Z,101190.47
2023-07-22T03:45:53.999Z,101178.78
2023-07-22T03:46:25.961Z,101179.03
2023-07-22T03:46:57.808Z,101184.91
2023-07-22T03:47:29.409Z,101178.97
2023-07-22T03:48:01.720Z,101185.31
2023-07-22T03:48:33.448Z,101179.38
2023-07-22T03:49:05.997Z,101180.63
2023-07-22T03:49:37.705Z,101187.78
2023-07-22T03:50:09.803Z,101181.44
2023-07-22T03:50:41.328Z,101187.56
2023-07-22T03:51:20.046Z,101182.47
2023-07-22T03:51:52.785Z,101188.81
2023-07-22T03:52:24.732Z,101184.13
2023-07-22T03:52:56.624Z,101181.22
2023-07-22T03:53:28.256Z,101185.53
2023-07-22T03:54:00.117Z,101183.88
2023-07-22T03:54:31.782Z,101181.44
2023-07-22T03:55:03.839Z,101182.25
2023-07-22T03:55:35.489Z,101182.47
2023-07-22T03:56:07.054Z,101183.69
2023-07-22T03:56:41.974Z,101188.19
2023-07-22T03:57:13.652Z,101193.69
2023-07-22T03:57:45.263Z,101188.34
2023-07-22T03:58:17.185Z,101187.28
2023-07-22T03:58:53.253Z,101185.97
2023-07-22T03:59:25.075Z,101190.66
2023-07-22T03:59:57.195Z,101189.06
2023-07-22T04:00:28.780Z,101191.50
2023-07-22T04:01:00.438Z,101183.25
2023-07-22T04:01:32.088Z,101183.69
2023-07-22T04:02:04.038Z,101183.66
2023-07-22T04:02:38.434Z,101184.03
2023-07-22T04:03:10.121Z,101186.53
2023-07-22T04:03:42.019Z,101189.38
2023-07-22T04:04:13.712Z,101188.50
2023-07-22T04:04:45.274Z,101192.63
2023-07-22T04:05:16.821Z,101186.47
2023-07-22T04:05:57.749Z,101196.84
2023-07-22T04:06:29.749Z,101185.63
2023-07-22T04:07:01.659Z,101189.31
2023-07-22T04:07:33.438Z,101197.16
2023-07-22T04:08:05.493Z,101188.84
2023-07-22T04:08:37.166Z,101187.16
2023-07-22T04:09:09.803Z,101190.84
2023-07-22T04:09:41.729Z,101190.22
2023-07-22T04:10:13.298Z,101190.84
2023-07-22T04:10:52.800Z,101194.50
2023-07-22T04:11:24.451Z,101191.63
2023-07-22T04:11:56.008Z,101189.09
2023-07-22T04:12:27.601Z,101191.13
2023-07-22T04:12:59.142Z,101188.47
2023-07-22T04:13:30.760Z,101190.44
2023-07-22T04:14:02.329Z,101191.72
2023-07-22T04:14:33.960Z,101188.63
2023-07-22T04:15:06.290Z,101183.50
2023-07-22T04:15:37.824Z,101184.16
2023-07-22T04:16:09.370Z,101188.63
2023-07-22T04:16:41.279Z,101184.22
2023-07-22T04:17:12.992Z,101189.16
2023-07-22T04:17:44.579Z,101194.56
2023-07-22T04:18:17.469Z,101184.31
2023-07-22T04:18:49.053Z,101186.44
2023-07-22T04:19:20.690Z,101188.06
2023-07-22T04:19:53.207Z,101192.06
2023-07-22T04:20:26.146Z,101185.31
2023-07-22T04:21:00.612Z,101187.25
2023-07-22T04:21:32.173Z,101185.09
2023-07-22T04:22:05.479Z,101180.28
2023-07-22T04:22:37.068Z,101190.47
2023-07-22T04:23:08.764Z,101189.06
2023-07-22T04:23:41.921Z,101186.28
2023-07-22T04:24:13.570Z,101191.41
2023-07-22T04:24:45.244Z,101199.19
2023-07-22T04:25:17.165Z,101186.03
2023-07-22T04:25:48.854Z,101190.56
2023-07-22T04:26:20.476Z,101190.16
2023-07-22T04:26:52.238Z,101185.00
2023-07-22T04:27:24.703Z,101193.84
2023-07-22T04:27:56.629Z,101183.16
2023-07-22T04:28:28.281Z,101190.78
2023-07-22T04:29:00.789Z,101185.63
2023-07-22T04:29:32.420Z,101182.06
2023-07-22T04:30:04.280Z,101191.91
2023-07-22T04:30:36.573Z,101191.44
2023-07-22T04:31:10.468Z,101190.66
2023-07-22T04:31:42.107Z,101193.06
2023-07-22T04:32:14.182Z,101182.00
2023-07-22T04:32:45.854Z,101188.13
2023-07-22T04:33:17.543Z,101180.72
2023-07-22T04:33:49.097Z,101193.84
2023-07-22T04:34:20.685Z,101189.75
2023-07-22T04:34:52.221Z,101192.38
2023-07-22T04:35:23.946Z,101189.19
2023-07-22T04:35:59.118Z,101192.44
2023-07-22T04:36:30.702Z,101186.69
2023-07-22T04:37:02.892Z,101192.94
2023-07-22T04:37:34.779Z,101188.75
2023-07-22T04:38:06.564Z,101194.84
2023-07-22T04:38:38.106Z,101196.97
2023-07-22T04:39:09.872Z,101192.06
2023-07-22T04:39:41.432Z,101187.94
2023-07-22T04:40:15.374Z,101187.81
2023-07-22T04:40:47.052Z,101194.91
2023-07-22T04:41:18.642Z,101200.63
2023-07-22T04:41:50.248Z,101198.94
2023-07-22T04:42:21.968Z,101192.44
2023-07-22T04:42:53.665Z,101191.84
2023-07-22T04:43:25.825Z,101195.34
2023-07-22T04:43:59.604Z,101195.31
2023-07-22T04:44:31.205Z,101196.16
2023-07-22T04:45:03.836Z,101191.88
2023-07-22T04:45:35.594Z,101194.28
2023-07-22T04:46:07.738Z,101201.69
2023-07-22T04:46:39.454Z,101196.16
2023-07-22T04:47:11.974Z,101195.41
2023-07-22T04:47:45.697Z,101195.00
2023-07-22T04:48:20.796Z,101186.81
2023-07-22T04:48:55.096Z,101194.91
2023-07-22T04:49:26.825Z,101193.69
2023-07-22T04:49:58.387Z,101194.97
2023-07-22T04:50:30.198Z,101198.66
2023-07-22T04:51:01.776Z,101200.66
2023-07-22T04:51:33.430Z,101195.78
2023-07-22T04:52:05.425Z,101200.25
2023-07-22T04:52:37.905Z,101201.66
2023-07-22T04:53:09.499Z,101206.41
2023-07-22T04:53:41.035Z,101203.91
2023-07-22T04:54:12.892Z,101204.16
2023-07-22T04:54:44.515Z,101202.81
2023-07-22T04:55:16.156Z,101201.63
2023-07-22T04:55:47.759Z,101203.06
2023-07-22T04:56:19.297Z,101201.38
2023-07-22T04:56:50.840Z,101201.38
2023-07-22T04:57:22.647Z,101197.25
2023-07-22T04:57:54.232Z,101199.91
2023-07-22T04:58:26.068Z,101201.53
2023-07-22T04:58:57.631Z,101201.03
2023-07-22T04:59:29.589Z,101197.97
2023-07-22T05:00:01.182Z,101201.56
2023-07-22T05:00:32.971Z,101196.00
2023-07-22T05:01:04.804Z,101198.00
2023-07-22T05:01:36.609Z,101198.97
2023-07-22T05:02:08.120Z,101195.31
2023-07-22T05:02:39.855Z,101198.41
2023-07-22T05:03:11.810Z,101198.41
2023-07-22T05:03:44.285Z,101203.47
2023-07-22T05:04:15.831Z,101199.25
2023-07-22T05:04:47.410Z,101196.72
2023-07-22T05:05:19.040Z,101191.03
2023-07-22T05:05:50.648Z,101199.06
2023-07-22T05:06:22.700Z,101200.25
2023-07-22T05:06:54.350Z,101195.81
2023-07-22T05:07:26.186Z,101186.38
2023-07-22T05:07:58.245Z,101194.78
2023-07-22T05:08:29.809Z,101194.34
2023-07-22T05:09:01.535Z,101187.19
2023-07-22T05:09:34.247Z,101191.50
2023-07-22T05:10:08.374Z,101183.81
2023-07-22T05:10:40.641Z,101185.47
2023-07-22T05:11:12.253Z,101183.50
2023-07-22T05:11:43.808Z,101186.16
2023-07-22T05:12:15.386Z,101178.94
2023-07-22T05:12:47.240Z,101186.44
2023-07-22T05:13:18.877Z,101197.59
2023-07-22T05:13:51.784Z,101188.38
2023-07-22T05:14:24.241Z,101188.97
2023-07-22T05:14:55.784Z,101191.16
2023-07-22T05:15:27.455Z,101194.69
2023-07-22T05:15:59.026Z,101186.41
2023-07-22T05:16:31.030Z,101188.63
2023-07-22T05:17:03.097Z,101187.53
2023-07-22T05:17:34.932Z,101178.72
2023-07-22T05:18:06.578Z,101188.00
2023-07-22T05:18:39.819Z,101179.16
2023-07-22T05:19:11.444Z,101185.63
2023-07-22T05:19:42.988Z,101179.25
2023-07-22T05:20:14.626Z,101176.94
2023-07-22T05:20:46.354Z,101179.78
2023-07-22T05:21:17.874Z,101181.97
2023-07-22T05:21:49.483Z,101178.81
2023-07-22T05:22:21.063Z,101183.13
2023-07-22T05:22:53.175Z,101180.59
2023-07-22T05:23:24.717Z,101184.44
2023-07-22T05:23:56.293Z,101188.16
2023-07-22T05:24:28.125Z,101191.75
2023-07-22T05:25:00.404Z,101188.06
2023-07-22T05:25:32.013Z,101185.63
2023-07-22T05:26:03.610Z,101188.53
2023-07-22T05:26:35.144Z,101186.78
2023-07-22T05:27:09.615Z,101189.00
2023-07-22T05:27:42.147Z,101187.59
2023-07-22T05:28:13.724Z,101187.34
2023-07-22T05:28:45.326Z,101184.69
2023-07-22T05:29:16.872Z,101194.63
2023-07-22T05:29:48.501Z,101193.69
2023-07-22T05:30:34.222Z,101186.56
2023-07-22T05:31:07.793Z,101194.63
2023-07-22T05:31:39.946Z,101186.81
2023-07-22T05:32:27.363Z,101184.63
2023-07-22T05:33:03.394Z,101192.19
2023-07-22T05:33:34.997Z,101197.06
2023-07-22T05:34:06.521Z,101194.63
2023-07-22T05:34:38.261Z,101193.44
2023-07-22T05:35:10.166Z,101196.06
2023-07-22T05:35:41.845Z,101190.72
2023-07-22T05:36:13.468Z,101196.81
2023-07-22T05:36:45.041Z,101200.63
2023-07-22T05:37:16.627Z,101193.31
2023-07-22T05:37:48.167Z,101196.25
2023-07-22T05:38:19.842Z,101200.34
2023-07-22T05:38:51.388Z,101200.69
2023-07-22T05:39:22.964Z,101206.97
2023-07-22T05:39:54.582Z,101199.53
2023-07-22T05:40:26.177Z,101192.38
2023-07-22T05:40:57.748Z,101199.50
2023-07-22T05:41:29.300Z,101202.53
2023-07-22T05:42:00.888Z,101200.56
2023-07-22T05:42:32.459Z,101198.13
2023-07-22T05:43:04.159Z,101202.34
2023-07-22T05:43:35.904Z,101200.66
2023-07-22T05:44:07.484Z,101190.41
2023-07-22T05:44:39.028Z,101196.50
2023-07-22T05:45:14.845Z,101204.53
2023-07-22T05:45:46.385Z,101198.13
2023-07-22T05:46:18.044Z,101199.88
2023-07-22T05:46:49.712Z,101197.88
2023-07-22T05:47:21.305Z,101201.16
2023-07-22T05:47:53.091Z,101204.88
2023-07-22T05:48:24.693Z,101197.88
2023-07-22T05:48:56.234Z,101197.06
2023-07-22T05:49:27.763Z,101198.34
2023-07-22T05:49:59.439Z,101202.09
2023-07-22T05:50:31.058Z,101201.63
2023-07-22T05:51:02.823Z,101199.50
2023-07-22T05:51:34.349Z,101198.81
2023-07-22T05:52:06.428Z,101195.78
2023-07-22T05:52:38.530Z,101194.72
2023-07-22T05:53:10.254Z,101191.94
2023-07-22T05:53:41.842Z,101200.66
2023-07-22T05:54:13.395Z,101198.47
2023-07-22T05:54:44.978Z,101196.50
2023-07-22T05:55:16.623Z,101198.13
2023-07-22T05:55:48.287Z,101202.88
2023-07-22T05:56:19.803Z,101201.59
2023-07-22T05:56:51.343Z,101201.78
2023-07-22T05:57:22.893Z,101200.44
2023-07-22T05:57:54.763Z,101198.09
2023-07-22T05:58:26.310Z,101197.59
2023-07-22T05:58:57.867Z,101188.28
2023-07-22T05:59:29.476Z,101199.25
2023-07-22T06:00:43.851Z,101194.25
2023-07-22T06:01:16.058Z,101189.94
2023-07-22T06:01:47.739Z,101190.25
2023-07-22T06:02:19.646Z,101198.31
2023-07-22T06:02:51.274Z,101190.41
2023-07-22T06:03:23.164Z,101187.47
2023-07-22T06:03:54.906Z,101178.69
2023-07-22T06:04:26.611Z,101188.47
2023-07-22T06:04:58.318Z,101186.75
2023-07-22T06:05:29.878Z,101176.53
2023-07-22T06:06:01.476Z,101186.09
2023-07-22T06:06:33.458Z,101179.44
2023-07-22T06:07:05.573Z,101178.78
2023-07-22T06:07:37.892Z,101184.25